首页
METAR-TAF:

METAR-TAF

机场 :

布達佩斯李斯特·費倫茨國際機場

布达佩斯, 匈牙利

纬度: 47-26N, 经度: 019-16E, 海拔: 151米

当前天气观测

该预报发布于16分钟前的19:30 UTC
风速2节,风向东转东南
温度 0°C
湿度 47%
气压 1018 hPa
能见度10公里或以上
1500米以下无云,无积雨云

METAR: LHBP 011930Z 12002KT CAVOK M00/M10 Q1018 NOSIG

时间: 21:46 (19:46 UTC)

预报

该预报发布于2小时和31分钟前的17:15 UTC
预报有效从01日的 18点(UTC)到 02日的 18点(UTC)
风速6节,风向东转东南
能见度10公里或以上
1500米以下无云,无积雨云
成为
从 01日的 19点(UTC)到 01日的 21点(UTC)
风速3节,风向多变
成为
从 02日的 07点(UTC)到 02日的 09点(UTC)
风速7节,风向南转西南

TAF: LHBP 011715Z 0118/0218 12006KT CAVOK BECMG 0119/0121 VRB03KT BECMG 0207/0209 20007KT

超过4000个机场的气象观测和天气预报(METAR&TAF报告)。

可查询的气象台以黄色和红色小点在地图上表示。

将鼠标移到小点上方,可查看气象台名称。

然后点击查看天气观测和预报。

如需切换地图:点击带黑十字的绿色按钮放大地图;点击带横线的绿色按钮缩小地图;或者点击绿色箭头查看邻近地区的地图。


METAR-TAF: